0V4 weather

Brookneal/Campbell County Airport
Brookneal, Virginia, United States

Public forecast

Using degrees Fahrenheit for public forecast. Weather courtesy of forecast.io.

METAR (pilot weather report)

Retrieved 2019/07/20 04:35 UTC (0 seconds ago):

K0V4 200435Z AUTO 00000KT 10SM CLR 25/25 A2999 RMK AO1 T02460246

TAF (pilot weather forecast)

Forecast is more than 12 hours old.

Closest forecast is Lynchburg Regional Preston Glenn Field, 14.2 nm (26.2 km) NW. Retrieved 2019/07/19 00:54 UTC (1 day ago):

TAF KLYH 192353Z 2000/2024 25003KT P6SM SKC FM200800 00000KT 5SM BR SKC FM201500 26007KT P6SM SCT060